Time;durP1;ratioP1;P1;durP2;ratioP2;P2;SDS_P1;SDS_P2;PMS_P1;PMS_P2;Temp;Humidity;BMP_temperature;BMP_pressure;BME280_temperature;BME280_humidity;BME280_pressure;Samples;Min_cycle;Max_cycle;Signal;HPM_P1;HPM_P2
2021/10/17 00:02:15;;;;;;;15.30;8.75;;;;;;;8.05;92.43;101618.06;5018093;28;20045;-83
2021/10/17 00:04:41;;;;;;;19.13;9.25;;;;;;;8.07;92.33;101618.78;5035568;28;20124;-86
2021/10/17 00:07:09;;;;;;;16.52;8.35;;;;;;;8.09;91.82;101615.00;5035777;28;20055;-86
2021/10/17 00:09:36;;;;;;;18.67;8.68;;;;;;;8.11;91.93;101609.53;5052416;28;20401;-87
2021/10/17 00:12:01;;;;;;;18.17;9.02;;;;;;;8.11;91.38;101605.06;5056230;28;20443;-85
2021/10/17 00:14:27;;;;;;;18.00;7.80;;;;;;;8.14;91.26;101610.13;5033382;28;20325;-87
2021/10/17 00:16:52;;;;;;;17.88;8.43;;;;;;;8.17;91.26;101603.69;5032794;28;20471;-85
2021/10/17 00:19:18;;;;;;;20.65;8.07;;;;;;;8.18;91.06;101608.06;5031613;28;20453;-82
2021/10/17 00:21:43;;;;;;;18.77;8.50;;;;;;;8.20;90.78;101599.88;5045194;28;20053;-84
2021/10/17 00:24:08;;;;;;;18.40;8.90;;;;;;;8.22;90.51;101601.44;5037509;28;20049;-85
2021/10/17 00:26:34;;;;;;;13.90;7.43;;;;;;;8.23;90.28;101600.50;5028500;28;20071;-87
2021/10/17 00:29:00;;;;;;;19.95;8.05;;;;;;;8.22;89.92;101604.13;5057253;28;20041;-85
2021/10/17 00:31:25;;;;;;;14.90;7.05;;;;;;;8.25;89.78;101598.53;5054991;28;20040;-83
2021/10/17 00:33:51;;;;;;;24.83;8.27;;;;;;;8.27;89.93;101604.59;5040115;28;20057;-84
2021/10/17 00:36:17;;;;;;;14.43;6.72;;;;;;;8.30;89.44;101608.84;5046433;28;20033;-84
2021/10/17 00:38:42;;;;;;;18.80;8.15;;;;;;;8.31;89.07;101605.19;5031609;28;20132;-85
2021/10/17 00:41:07;;;;;;;14.50;7.50;;;;;;;8.33;89.00;101605.91;5036464;28;20117;-83
2021/10/17 00:43:33;;;;;;;19.88;7.65;;;;;;;8.36;88.87;101608.31;5053149;28;20041;-84
2021/10/17 00:45:58;;;;;;;15.82;7.70;;;;;;;8.39;88.67;101615.25;5032641;28;20049;-85
2021/10/17 00:48:24;;;;;;;15.70;6.90;;;;;;;8.38;88.38;101609.03;5033878;28;20052;-85
2021/10/17 00:50:49;;;;;;;13.77;6.57;;;;;;;8.39;88.25;101608.09;5035195;28;20049;-81
2021/10/17 00:53:18;;;;;;;15.48;7.00;;;;;;;8.41;87.92;101610.66;5039646;28;20071;-87
2021/10/17 00:55:45;;;;;;;17.67;6.95;;;;;;;8.42;87.93;101615.00;5045454;28;20424;-85
2021/10/17 00:58:14;;;;;;;13.52;6.47;;;;;;;8.42;88.12;101620.34;5046276;28;20064;-86
2021/10/17 01:00:40;;;;;;;16.95;7.20;;;;;;;8.41;88.03;101610.66;5053533;28;20049;-83
2021/10/17 01:03:05;;;;;;;14.05;7.05;;;;;;;8.40;87.79;101607.13;5048226;28;20051;-85
2021/10/17 01:05:31;;;;;;;16.60;6.97;;;;;;;8.42;87.90;101610.50;5062014;28;20459;-87
2021/10/17 01:07:57;;;;;;;12.27;6.50;;;;;;;8.43;87.87;101614.00;5067132;28;20032;-82
2021/10/17 01:10:22;;;;;;;19.02;7.13;;;;;;;8.44;88.12;101613.06;5057450;28;20048;-84
2021/10/17 01:12:47;;;;;;;17.48;7.80;;;;;;;8.43;88.07;101614.88;5042146;28;20083;-87
2021/10/17 01:15:13;;;;;;;12.88;7.28;;;;;;;8.42;88.19;101615.00;5056680;28;20116;-85
2021/10/17 01:17:39;;;;;;;17.05;7.00;;;;;;;8.42;88.09;101615.84;5064476;28;20037;-82
2021/10/17 01:20:09;;;;;;;16.33;7.53;;;;;;;8.42;88.29;101617.69;5057651;28;20080;-85
2021/10/17 01:22:34;;;;;;;17.23;8.15;;;;;;;8.42;88.22;101609.66;5056906;28;20048;-86
2021/10/17 01:25:00;;;;;;;17.20;7.68;;;;;;;8.42;88.02;101612.34;5059897;28;20036;-83
2021/10/17 01:27:26;;;;;;;20.00;7.55;;;;;;;8.41;88.02;101605.28;5059365;28;20279;-87
2021/10/17 01:29:52;;;;;;;19.17;7.43;;;;;;;8.41;88.22;101607.97;5046785;28;20033;-85
2021/10/17 01:32:18;;;;;;;18.13;8.02;;;;;;;8.41;88.48;101607.97;5063994;28;20071;-86
2021/10/17 01:34:43;;;;;;;18.30;7.63;;;;;;;8.41;88.69;101602.63;5061707;28;20032;-84
2021/10/17 01:37:09;;;;;;;15.95;7.40;;;;;;;8.41;89.78;101607.97;5058310;28;20045;-83
2021/10/17 01:39:34;;;;;;;16.02;7.35;;;;;;;8.39;90.58;101599.22;5056908;28;20044;-86
2021/10/17 01:42:00;;;;;;;16.60;7.82;;;;;;;8.38;91.47;101594.81;5042616;28;20041;-84
2021/10/17 01:44:29;;;;;;;15.13;8.10;;;;;;;8.35;91.89;101594.09;5055390;28;20067;-87
2021/10/17 01:46:55;;;;;;;;;;;;;;;8.35;92.17;101591.44;5050185;28;20045;-86
2021/10/17 01:49:20;;;;;;;20.77;9.35;;;;;;;8.25;91.84;101589.66;5033545;28;19921;-86
2021/10/17 01:51:46;;;;;;;19.00;8.65;;;;;;;8.20;92.31;101581.16;5039044;28;20068;-83
2021/10/17 01:54:11;;;;;;;18.45;8.68;;;;;;;8.19;92.20;101574.13;5066831;28;20034;-82
2021/10/17 01:56:38;;;;;;;22.77;9.73;;;;;;;8.20;92.31;101571.34;5040661;28;20047;-85
2021/10/17 01:59:04;;;;;;;22.75;9.38;;;;;;;8.20;91.98;101568.66;5036866;28;20037;-85
2021/10/17 02:01:30;;;;;;;19.15;9.40;;;;;;;8.20;92.14;101568.66;5041921;28;20596;-85
2021/10/17 02:03:59;;;;;;;19.60;8.98;;;;;;;8.20;91.88;101567.78;5034088;28;21820;-84
2021/10/17 02:06:24;;;;;;;16.55;9.05;;;;;;;8.21;91.76;101565.00;5036169;28;20049;-83
2021/10/17 02:08:49;;;;;;;20.92;8.85;;;;;;;8.22;91.72;101574.72;5036408;28;20398;-85
2021/10/17 02:11:15;;;;;;;21.17;8.98;;;;;;;8.22;91.48;101566.69;5047490;28;20128;-84
2021/10/17 02:13:40;;;;;;;17.83;9.40;;;;;;;8.21;91.61;101567.69;5042532;28;20046;-84
2021/10/17 02:16:06;;;;;;;22.35;9.23;;;;;;;8.21;91.73;101561.50;5039600;28;20129;-81
2021/10/17 02:18:32;;;;;;;20.23;9.75;;;;;;;8.21;91.60;101559.66;5049344;28;20049;-86
2021/10/17 02:20:59;;;;;;;19.15;9.20;;;;;;;8.21;91.76;101559.66;5036459;28;20364;-83
2021/10/17 02:23:24;;;;;;;18.85;8.88;;;;;;;8.21;91.75;101565.00;5047968;28;20049;-82
2021/10/17 02:25:49;;;;;;;17.85;9.55;;;;;;;8.22;92.12;101560.50;5041861;28;20511;-82
2021/10/17 02:28:15;;;;;;;19.92;8.85;;;;;;;8.21;92.08;101553.47;5036442;28;20034;-83
2021/10/17 02:30:40;;;;;;;17.80;9.07;;;;;;;8.22;91.72;101560.50;5030894;28;20120;-83
2021/10/17 02:33:06;;;;;;;19.88;9.95;;;;;;;8.21;92.04;101558.81;5022234;28;20393;-83
2021/10/17 02:35:31;;;;;;;19.90;9.32;;;;;;;8.21;92.11;101554.31;5020728;28;20120;-84
2021/10/17 02:37:57;;;;;;;19.58;9.98;;;;;;;8.21;91.76;101554.31;5025924;28;20500;-85
2021/10/17 02:40:22;;;;;;;20.33;9.20;;;;;;;8.21;91.94;101554.31;5051146;28;20520;-84
2021/10/17 02:42:47;;;;;;;18.88;10.20;;;;;;;8.21;91.83;101551.63;5040306;28;20120;-84
2021/10/17 02:45:13;;;;;;;20.13;10.05;;;;;;;8.22;91.83;101547.97;5043004;28;20052;-84
2021/10/17 02:47:38;;;;;;;17.95;9.60;;;;;;;8.21;91.81;101548.97;5043797;28;20071;-81
2021/10/17 02:50:05;;;;;;;17.88;10.00;;;;;;;8.21;91.90;101543.63;5036265;28;20061;-80
2021/10/17 02:52:30;;;;;;;18.10;9.60;;;;;;;8.22;91.98;101549.81;5034870;28;20048;-86
2021/10/17 02:54:55;;;;;;;18.35;9.38;;;;;;;8.24;92.06;101547.84;5044605;28;20116;-82
2021/10/17 02:57:21;;;;;;;19.85;10.07;;;;;;;8.24;92.29;101538.00;5016680;28;20037;-86
2021/10/17 02:59:47;;;;;;;20.33;9.93;;;;;;;8.25;91.98;101539.69;5040225;28;20040;-86
2021/10/17 03:02:12;;;;;;;24.08;9.55;;;;;;;8.25;92.29;101542.38;5046795;28;20048;-86
2021/10/17 03:04:38;;;;;;;20.35;10.07;;;;;;;8.26;92.44;101545.91;5053214;28;21695;-86
2021/10/17 03:07:03;;;;;;;22.25;9.73;;;;;;;8.28;92.15;101543.94;5061290;28;20040;-82
2021/10/17 03:09:28;;;;;;;18.55;9.50;;;;;;;8.27;92.18;101545.75;5056214;28;20379;-86
2021/10/17 03:11:54;;;;;;;22.00;9.88;;;;;;;8.28;92.28;101546.59;5062419;28;20094;-82
2021/10/17 03:14:19;;;;;;;19.88;9.48;;;;;;;8.29;92.32;101549.16;5051257;28;20393;-84
2021/10/17 03:16:46;;;;;;;18.50;10.13;;;;;;;8.29;92.32;101542.97;5058550;28;20044;-84
2021/10/17 03:19:12;;;;;;;24.23;10.57;;;;;;;8.28;91.95;101550.13;5063570;28;20036;-81
2021/10/17 03:21:38;;;;;;;20.35;10.15;;;;;;;8.28;92.14;101542.09;5059421;28;20582;-86
2021/10/17 03:24:04;;;;;;;19.13;9.93;;;;;;;8.29;92.04;101548.31;5041227;28;20060;-83
2021/10/17 03:26:33;;;;;;;16.52;9.93;;;;;;;8.29;92.06;101543.81;5060074;28;20485;-82
2021/10/17 03:28:58;;;;;;;21.95;9.93;;;;;;;8.32;91.99;101548.06;5056273;28;20133;-86
2021/10/17 03:31:23;;;;;;;20.60;10.48;;;;;;;8.32;92.09;101554.25;5052077;28;20128;-84
2021/10/17 03:33:50;;;;;;;21.77;10.65;;;;;;;8.32;91.94;101556.09;5032411;28;20482;-86
2021/10/17 03:36:15;;;;;;;19.48;9.80;;;;;;;8.32;92.05;101554.25;5033086;28;20173;-85
2021/10/17 03:38:41;;;;;;;19.63;10.07;;;;;;;8.33;91.93;101558.59;5049384;28;20064;-85
2021/10/17 03:41:06;;;;;;;21.40;10.57;;;;;;;8.35;91.98;101555.81;5033531;28;20517;-86
2021/10/17 03:43:32;;;;;;;20.90;10.45;;;;;;;8.35;92.62;101551.31;5051425;28;20536;-85
2021/10/17 03:45:57;;;;;;;22.75;11.00;;;;;;;8.34;92.81;101552.31;5052367;28;20504;-83
2021/10/17 03:48:22;;;;;;;20.10;11.07;;;;;;;8.32;93.13;101551.56;5042543;28;20045;-83
2021/10/17 03:50:48;;;;;;;20.92;10.93;;;;;;;8.30;92.91;101548.19;5041619;28;20439;-85
2021/10/17 03:53:13;;;;;;;21.15;11.05;;;;;;;8.28;93.11;101550.13;5039377;28;20437;-87
2021/10/17 03:55:38;;;;;;;23.13;10.82;;;;;;;8.29;92.87;101543.81;5052893;28;20095;-82
2021/10/17 03:58:04;;;;;;;21.70;10.82;;;;;;;8.29;92.99;101548.31;5031047;28;20107;-84
2021/10/17 04:00:30;;;;;;;27.10;11.85;;;;;;;8.27;92.77;101551.13;5008163;28;20095;-84
2021/10/17 04:02:56;;;;;;;18.95;11.38;;;;;;;8.27;92.65;101553.78;5047278;28;20767;-86
2021/10/17 04:05:21;;;;;;;21.38;11.90;;;;;;;8.27;92.79;101559.13;5031067;28;20049;-83
2021/10/17 04:07:47;;;;;;;18.80;10.00;;;;;;;8.27;92.53;101548.44;5042739;28;20102;-86
2021/10/17 04:10:12;;;;;;;19.88;10.60;;;;;;;8.27;92.45;101553.78;5040202;28;20102;-85
2021/10/17 04:12:37;;;;;;;19.98;11.38;;;;;;;8.29;92.72;101559.03;5052234;28;20055;-83
2021/10/17 04:15:03;;;;;;;21.60;10.75;;;;;;;8.28;92.57;101549.28;5041962;28;20037;-85
2021/10/17 04:17:29;;;;;;;20.20;11.27;;;;;;;8.27;92.48;101550.28;5048626;28;20036;-84
2021/10/17 04:19:54;;;;;;;22.73;11.63;;;;;;;8.26;92.60;101549.44;5041369;28;20473;-86
2021/10/17 04:22:20;;;;;;;19.00;9.90;;;;;;;8.26;92.71;101548.59;5055438;28;20041;-84
2021/10/17 04:24:46;;;;;;;17.60;10.57;;;;;;;8.24;92.45;101548.69;5054866;28;20436;-84
2021/10/17 04:27:13;;;;;;;21.50;10.90;;;;;;;8.25;92.67;101546.88;5060871;28;20090;-85
2021/10/17 04:29:39;;;;;;;18.48;10.27;;;;;;;8.23;92.73;101543.47;5057700;28;20131;-85
2021/10/17 04:32:06;;;;;;;19.40;10.68;;;;;;;8.22;92.60;101542.63;5073688;28;20094;-82
2021/10/17 04:34:31;;;;;;;17.15;9.82;;;;;;;8.20;92.90;101544.59;5055705;28;20045;-86
2021/10/17 04:36:57;;;;;;;16.85;10.57;;;;;;;8.22;93.08;101544.47;5055544;28;20051;-85
2021/10/17 04:39:23;;;;;;;23.00;10.77;;;;;;;8.20;93.08;101536.59;5056947;28;20044;-84
2021/10/17 04:41:48;;;;;;;21.92;11.30;;;;;;;8.19;93.10;101550.06;5056056;28;20412;-83
2021/10/17 04:44:13;;;;;;;22.23;10.93;;;;;;;8.20;93.10;101535.72;5062700;28;20409;-88
2021/10/17 04:46:39;;;;;;;28.20;10.60;;;;;;;8.18;93.07;101538.53;5057939;28;20040;-84
2021/10/17 04:49:04;;;;;;;20.25;11.32;;;;;;;8.19;93.02;101547.41;5053580;28;20037;-85
2021/10/17 04:51:30;;;;;;;20.42;11.13;;;;;;;8.17;93.09;101546.66;5061992;28;20044;-83
2021/10/17 04:53:55;;;;;;;28.77;11.45;;;;;;;8.16;93.15;101545.81;5055062;28;20067;-85
2021/10/17 04:56:20;;;;;;;21.90;11.20;;;;;;;8.14;93.33;101543.31;5020566;28;20401;-85
2021/10/17 04:58:46;;;;;;;22.50;11.23;;;;;;;8.16;93.41;101545.81;5042401;28;20110;-82
2021/10/17 05:01:11;;;;;;;23.13;10.48;;;;;;;8.17;93.46;101552.88;5049503;28;20059;-85
2021/10/17 05:03:37;;;;;;;19.77;11.73;;;;;;;8.17;93.25;101552.88;5058660;28;20096;-86
2021/10/17 05:06:03;;;;;;;23.20;11.60;;;;;;;8.18;93.17;101543.88;5041095;28;20028;-84
2021/10/17 05:08:29;;;;;;;21.70;11.77;;;;;;;8.19;93.32;101555.41;5052419;28;20135;-88
2021/10/17 05:10:54;;;;;;;24.58;11.48;;;;;;;8.19;93.25;101550.06;5071651;28;20127;-83
2021/10/17 05:13:20;;;;;;;22.60;11.85;;;;;;;8.20;93.29;101551.75;5044526;28;20061;-84
2021/10/17 05:15:45;;;;;;;27.08;11.05;;;;;;;8.19;93.05;101547.41;5057782;28;20443;-84
2021/10/17 05:18:10;;;;;;;22.15;11.80;;;;;;;8.18;92.96;101554.56;5055964;28;20029;-84
2021/10/17 05:20:36;;;;;;;19.73;11.32;;;;;;;8.17;93.37;101552.00;5045161;28;20052;-87
2021/10/17 05:23:03;;;;;;;20.73;11.38;;;;;;;8.17;93.19;101546.66;5061303;28;20067;-86
2021/10/17 05:25:29;;;;;;;26.70;11.63;;;;;;;8.19;93.28;101550.06;5062549;28;20068;-83
2021/10/17 05:27:54;;;;;;;18.63;10.98;;;;;;;8.19;93.35;101544.72;5052974;28;20126;-85
2021/10/17 05:30:19;;;;;;;22.23;12.10;;;;;;;8.18;93.11;101546.56;5044128;28;20041;-85
2021/10/17 05:32:45;;;;;;;22.98;11.18;;;;;;;8.19;93.21;101534.88;5041486;28;20540;-88
2021/10/17 05:35:10;;;;;;;26.42;11.95;;;;;;;8.19;93.32;101532.19;5034600;28;20043;-87
2021/10/17 05:37:36;;;;;;;26.85;11.90;;;;;;;8.18;93.13;101537.69;5038672;28;20053;-86
2021/10/17 05:40:02;;;;;;;22.67;11.18;;;;;;;8.18;93.39;101535.84;5038128;28;20135;-84
2021/10/17 05:42:27;;;;;;;28.00;12.30;;;;;;;8.18;93.51;101543.88;5033472;28;20045;-84
2021/10/17 05:44:52;;;;;;;21.17;11.63;;;;;;;8.18;93.39;101538.53;5039980;28;20048;-84
2021/10/17 05:47:18;;;;;;;28.33;12.15;;;;;;;8.17;93.36;101539.53;5050438;28;20055;-84
2021/10/17 05:49:43;;;;;;;27.05;12.63;;;;;;;8.15;93.55;101538.78;5057377;28;20128;-86
2021/10/17 05:52:08;;;;;;;24.63;12.10;;;;;;;8.17;93.40;101536.84;5042528;28;20063;-83
2021/10/17 05:54:34;;;;;;;24.02;11.98;;;;;;;8.17;93.70;101538.66;5061763;28;20539;-83
2021/10/17 05:56:59;;;;;;;20.42;12.43;;;;;;;8.17;93.38;101544.88;5066340;28;20033;-86
2021/10/17 05:59:25;;;;;;;23.13;12.70;;;;;;;8.18;93.68;101545.72;5047736;28;20483;-85
2021/10/17 06:01:50;;;;;;;25.30;12.85;;;;;;;8.17;93.62;101547.53;5035721;28;20038;-84
2021/10/17 06:04:15;;;;;;;22.13;12.85;;;;;;;8.16;93.99;101551.19;5054835;28;20045;-82
2021/10/17 06:06:42;;;;;;;23.35;12.10;;;;;;;8.18;94.01;101554.56;5058839;28;20496;-81
2021/10/17 06:09:08;;;;;;;27.85;12.82;;;;;;;8.17;93.71;101555.56;5051926;28;20135;-88
2021/10/17 06:11:34;;;;;;;24.20;12.55;;;;;;;8.17;93.89;101568.94;5061393;28;20115;-84
2021/10/17 06:14:00;;;;;;;25.70;12.77;;;;;;;8.19;94.05;101566.94;5062974;28;20090;-80
2021/10/17 06:16:26;;;;;;;24.25;12.45;;;;;;;8.21;93.84;101570.34;5073133;28;20323;-83
2021/10/17 06:18:52;;;;;;;24.67;12.43;;;;;;;8.21;94.03;101575.69;5067715;28;20751;-86
2021/10/17 06:21:18;;;;;;;27.45;13.50;;;;;;;8.22;93.84;101577.38;5057856;28;20115;-85
2021/10/17 06:23:43;;;;;;;24.38;13.02;;;;;;;8.22;94.09;101577.38;5044162;28;20036;-83
2021/10/17 06:26:10;;;;;;;26.23;13.98;;;;;;;8.23;93.88;101579.09;5041486;28;20045;-88
2021/10/17 06:28:36;;;;;;;22.55;13.75;;;;;;;8.24;94.05;101591.47;5059571;28;20032;-85
2021/10/17 06:31:02;;;;;;;22.92;13.73;;;;;;;8.24;93.89;101590.66;5071869;28;20044;-83
2021/10/17 06:33:28;;;;;;;26.73;11.52;;;;;;;8.24;94.21;101588.81;5064907;28;20447;-84
2021/10/17 06:35:53;;;;;;;24.63;11.25;;;;;;;8.24;94.08;101596.00;5064429;28;20041;-84
2021/10/17 06:38:19;;;;;;;31.17;12.75;;;;;;;8.24;94.03;101596.84;5059092;28;20098;-84
2021/10/17 06:40:44;;;;;;;21.90;11.95;;;;;;;8.25;94.27;101600.34;5055547;28;20056;-81
2021/10/17 06:43:10;;;;;;;26.23;11.52;;;;;;;8.25;94.48;101593.16;5054857;28;20037;-84
2021/10/17 06:45:35;;;;;;;22.38;11.63;;;;;;;8.24;94.50;101590.66;5042148;28;20067;-83
2021/10/17 06:48:00;;;;;;;26.90;12.90;;;;;;;8.23;94.40;101588.94;5060569;28;20044;-83
2021/10/17 06:50:26;;;;;;;26.10;12.75;;;;;;;8.23;94.73;101600.50;5065069;28;20032;-86
2021/10/17 06:52:51;;;;;;;25.30;12.77;;;;;;;8.21;94.61;101594.41;5061385;28;20106;-88
2021/10/17 06:55:17;;;;;;;23.88;12.75;;;;;;;8.22;94.73;101592.59;5063990;28;20098;-85
2021/10/17 06:57:44;;;;;;;21.92;12.43;;;;;;;8.23;94.65;101597.81;5061963;28;20049;-83
2021/10/17 07:00:10;;;;;;;31.83;13.35;;;;;;;8.22;94.63;101598.78;5058108;28;20103;-85
2021/10/17 07:02:36;;;;;;;27.40;13.10;;;;;;;8.23;94.57;101595.16;5077249;28;20452;-84
2021/10/17 07:05:02;;;;;;;25.10;13.73;;;;;;;8.24;94.59;101612.88;5054687;28;20044;-86
2021/10/17 07:07:28;;;;;;;24.25;13.07;;;;;;;8.24;94.50;101607.53;5063732;28;20083;-84
2021/10/17 07:09:55;;;;;;;25.45;13.48;;;;;;;8.24;94.72;101607.53;5057502;28;20044;-86
2021/10/17 07:12:20;;;;;;;24.83;12.82;;;;;;;8.26;94.86;101608.25;5054926;28;20056;-83
2021/10/17 07:14:46;;;;;;;22.60;11.57;;;;;;;8.24;94.65;101607.53;5063264;28;20417;-87
2021/10/17 07:17:11;;;;;;;22.17;12.50;;;;;;;8.26;94.66;101615.44;5044530;28;20149;-87
2021/10/17 07:19:36;;;;;;;24.73;12.77;;;;;;;8.27;94.27;101617.97;5039696;28;20049;-84
2021/10/17 07:22:02;;;;;;;23.70;12.13;;;;;;;8.26;94.52;101618.94;5060162;28;20052;-85
2021/10/17 07:24:28;;;;;;;22.52;12.25;;;;;;;8.29;94.31;101616.03;5063325;28;20045;-83
2021/10/17 07:26:55;;;;;;;21.33;12.40;;;;;;;8.29;94.66;101616.03;5055205;28;20044;-82
2021/10/17 07:29:20;;;;;;;19.67;12.70;;;;;;;8.32;94.54;101614.91;5061974;28;20028;-85
2021/10/17 07:31:46;;;;;;;23.25;12.43;;;;;;;8.32;94.52;101623.78;5062465;28;20392;-86
2021/10/17 07:34:12;;;;;;;29.52;13.27;;;;;;;8.35;94.39;101628.88;5060534;28;20442;-81
2021/10/17 07:36:37;;;;;;;24.40;12.93;;;;;;;8.36;94.47;101622.53;5061993;28;20123;-83
2021/10/17 07:39:04;;;;;;;25.77;14.05;;;;;;;8.39;94.06;101628.63;5053366;28;20551;-83
2021/10/17 07:41:29;;;;;;;24.75;12.65;;;;;;;8.41;94.05;101624.88;5057204;28;20211;-86
2021/10/17 07:43:55;;;;;;;24.98;12.73;;;;;;;8.44;94.24;101624.59;5052141;28;20159;-84
2021/10/17 07:46:20;;;;;;;22.83;12.90;;;;;;;8.45;94.06;101623.59;5054321;28;20099;-86
2021/10/17 07:48:46;;;;;;;23.20;11.63;;;;;;;8.49;94.30;101621.53;5028625;28;20044;-85
2021/10/17 07:51:11;;;;;;;21.13;12.15;;;;;;;8.51;94.35;101624.91;5034824;28;20498;-82
2021/10/17 07:53:37;;;;;;;24.98;13.85;;;;;;;8.53;94.26;101628.31;5036015;28;20434;-81
2021/10/17 07:56:02;;;;;;;22.75;13.07;;;;;;;8.55;93.84;101627.22;5056136;28;20044;-86
2021/10/17 07:58:28;;;;;;;25.20;12.63;;;;;;;8.54;93.87;101621.97;5058471;28;20378;-84
2021/10/17 08:00:54;;;;;;;25.63;13.25;;;;;;;8.56;93.45;101622.72;5042713;28;20387;-84
2021/10/17 08:03:20;;;;;;;25.98;12.40;;;;;;;8.61;93.80;101625.84;5058039;28;20478;-85
2021/10/17 08:05:45;;;;;;;20.98;13.15;;;;;;;8.66;93.45;101623.63;5058975;28;20033;-84
2021/10/17 08:08:11;;;;;;;26.23;12.75;;;;;;;8.66;93.13;101623.63;5050201;28;20600;-84
2021/10/17 08:10:37;;;;;;;25.55;12.52;;;;;;;8.70;92.80;101626.88;5060693;28;20507;-83
2021/10/17 08:13:02;;;;;;;22.60;12.00;;;;;;;8.73;92.75;101623.94;5061199;28;20089;-84
2021/10/17 08:15:29;;;;;;;25.65;13.20;;;;;;;8.76;92.28;101627.19;5056026;28;20115;-87
2021/10/17 08:17:54;;;;;;;22.85;12.02;;;;;;;8.79;92.09;101618.06;5054548;28;20036;-87
2021/10/17 08:20:21;;;;;;;24.30;12.32;;;;;;;8.84;92.04;101626.53;5059464;28;20045;-87
2021/10/17 08:22:47;;;;;;;21.63;12.00;;;;;;;8.87;91.53;101628.94;5053663;28;20064;-86
2021/10/17 08:25:12;;;;;;;25.80;12.35;;;;;;;8.89;90.52;101623.44;5054411;28;20060;-83
2021/10/17 08:27:40;;;;;;;20.60;11.35;;;;;;;8.98;90.88;101620.00;5039794;28;20041;-87
2021/10/17 08:30:06;;;;;;;18.45;10.98;;;;;;;9.01;90.04;101617.88;5038924;28;20037;-86
2021/10/17 08:32:31;;;;;;;23.45;12.45;;;;;;;9.08;89.91;101618.19;5061676;28;20039;-85
2021/10/17 08:34:57;;;;;;;21.85;11.45;;;;;;;9.13;89.36;101618.66;5039740;28;20044;-84
2021/10/17 08:37:22;;;;;;;19.67;12.00;;;;;;;9.16;89.01;101621.06;5036342;28;20049;-85
2021/10/17 08:39:48;;;;;;;24.25;12.02;;;;;;;9.22;89.12;101625.03;5033189;28;20474;-85
2021/10/17 08:42:13;;;;;;;24.35;12.57;;;;;;;9.25;89.18;101620.22;5039854;28;20049;-83
2021/10/17 08:44:39;;;;;;;20.52;12.20;;;;;;;9.29;88.68;101619.97;5033083;28;20136;-83
2021/10/17 08:47:06;;;;;;;20.50;11.75;;;;;;;9.31;88.32;101618.84;5028797;28;20533;-85
2021/10/17 08:49:33;;;;;;;23.92;13.00;;;;;;;9.37;88.36;101615.63;5030670;28;20115;-85
2021/10/17 08:52:00;;;;;;;26.42;11.65;;;;;;;9.42;88.04;101612.53;5033478;28;20034;-84
2021/10/17 08:54:25;;;;;;;17.42;10.77;;;;;;;9.48;87.81;101612.84;5030380;28;20048;-84
2021/10/17 08:56:51;;;;;;;22.88;12.32;;;;;;;9.57;87.93;101615.69;5046844;28;20041;-83
2021/10/17 08:59:16;;;;;;;21.10;11.45;;;;;;;9.63;87.20;101624.00;5036365;28;20045;-82
2021/10/17 09:01:42;;;;;;;20.88;11.43;;;;;;;9.74;87.58;101624.88;5021590;28;20056;-85
2021/10/17 09:04:10;;;;;;;22.15;10.77;;;;;;;9.79;86.18;101636.88;5036771;28;20043;-84
2021/10/17 09:06:37;;;;;;;27.58;11.40;;;;;;;9.85;85.53;101646.22;5032638;28;20045;-83
2021/10/17 09:09:04;;;;;;;19.75;11.40;;;;;;;9.88;84.79;101644.09;5039404;28;20039;-86
2021/10/17 09:11:40;;;;;;;20.90;12.20;;;;;;;9.95;85.29;101630.97;5022807;28;20048;-84
2021/10/17 09:14:08;;;;;;;21.50;10.85;;;;;;;10.05;85.72;101633.69;5038437;28;20494;-85
2021/10/17 09:16:42;;;;;;;19.33;11.38;;;;;;;10.10;84.88;101632.28;5049667;28;20042;-87
2021/10/17 09:19:21;;;;;;;22.10;11.18;;;;;;;10.17;84.54;101646.78;5038156;28;20490;-86
2021/10/17 09:21:53;;;;;;;19.00;11.25;;;;;;;10.25;84.16;101640.72;5041336;28;20386;-83
2021/10/17 09:24:28;;;;;;;21.42;10.15;;;;;;;10.33;83.21;101642.75;5035545;28;20632;-87
2021/10/17 09:27:16;;;;;;;23.63;9.23;;;;;;;10.41;82.24;101636.66;5056129;28;20033;-83
2021/10/17 09:29:48;;;;;;;16.35;9.10;;;;;;;10.45;81.26;101638.91;5036250;28;20141;-84
2021/10/17 09:32:18;;;;;;;23.00;10.50;;;;;;;10.46;80.27;101637.06;5052469;28;20389;-83
2021/10/17 09:35:04;;;;;;;16.15;8.90;;;;;;;10.49;80.46;101637.63;5033645;28;20036;-81
2021/10/17 09:37:38;;;;;;;19.85;9.32;;;;;;;10.58;80.69;101638.59;5030123;28;20038;-85
2021/10/17 09:40:24;;;;;;;16.60;8.82;;;;;;;10.62;79.68;101642.72;5044533;28;20116;-89
2021/10/17 09:43:12;;;;;;;19.95;8.82;;;;;;;10.67;79.74;101643.09;5033902;28;20051;-88
2021/10/17 09:45:39;;;;;;;18.15;8.82;;;;;;;10.72;79.66;101631.94;5045652;28;20041;-83
2021/10/17 09:48:05;;;;;;;16.98;9.52;;;;;;;10.76;80.15;101627.97;5048563;28;20116;-82
2021/10/17 09:50:30;;;;;;;16.67;8.93;;;;;;;10.83;80.10;101634.47;5038122;28;20178;-83
2021/10/17 09:53:00;;;;;;;16.67;8.77;;;;;;;10.88;79.43;101636.72;5035432;28;20041;-82
2021/10/17 09:55:27;;;;;;;19.25;8.85;;;;;;;10.93;78.80;101623.69;5033847;28;20067;-82
2021/10/17 09:57:52;;;;;;;20.35;8.27;;;;;;;10.97;77.79;101623.25;5030739;28;20497;-86
2021/10/17 10:00:18;;;;;;;18.73;8.10;;;;;;;10.99;77.15;101629.34;5019886;28;20034;-86
2021/10/17 10:02:45;;;;;;;17.48;8.40;;;;;;;11.01;76.71;101638.06;5040744;28;20126;-83
2021/10/17 10:05:11;;;;;;;18.25;8.68;;;;;;;11.04;77.08;101632.41;5034406;28;20043;-87
2021/10/17 10:07:38;;;;;;;19.98;8.50;;;;;;;11.07;77.10;101626.75;5040326;28;20041;-87
2021/10/17 10:10:04;;;;;;;17.17;8.40;;;;;;;11.09;76.11;101633.81;5032039;28;20557;-87
2021/10/17 10:12:31;;;;;;;15.15;8.30;;;;;;;11.09;75.36;101633.81;5031452;28;20128;-85
2021/10/17 10:14:58;;;;;;;15.50;7.50;;;;;;;11.10;74.87;101641.72;5019582;28;20099;-84
2021/10/17 10:17:27;;;;;;;18.00;7.20;;;;;;;11.12;74.25;101641.59;5034335;28;20045;-85
2021/10/17 10:19:52;;;;;;;14.93;9.20;;;;;;;11.14;74.29;101636.94;5039145;28;20046;-85
2021/10/17 10:22:18;;;;;;;15.48;7.93;;;;;;;11.17;74.36;101642.00;5033198;28;20060;-83
2021/10/17 10:24:49;;;;;;;14.98;8.27;;;;;;;11.20;74.48;101642.53;5038734;28;20093;-87
2021/10/17 10:27:15;;;;;;;16.92;7.72;;;;;;;11.25;74.65;101647.50;5042306;28;20029;-85
2021/10/17 10:29:41;;;;;;;15.35;7.38;;;;;;;11.28;74.52;101642.66;5032651;28;20697;-85
2021/10/17 10:32:07;;;;;;;12.73;8.10;;;;;;;11.33;74.79;101647.56;5025084;28;20041;-85
2021/10/17 10:34:32;;;;;;;17.35;8.23;;;;;;;11.33;73.81;101642.19;5042020;28;20470;-83
2021/10/17 10:37:18;;;;;;;15.30;8.13;;;;;;;11.40;74.93;101646.00;5049384;28;20450;-82
2021/10/17 10:40:05;;;;;;;17.25;8.10;;;;;;;11.40;74.64;101642.47;5042337;28;20037;-86
2021/10/17 10:42:46;;;;;;;20.92;7.45;;;;;;;11.36;72.53;101646.44;5033652;28;20091;-85
2021/10/17 10:45:23;;;;;;;14.80;7.57;;;;;;;11.40;73.69;101642.47;5033511;28;20197;-84
2021/10/17 10:48:11;;;;;;;17.40;7.10;;;;;;;11.46;73.55;101641.88;5030892;28;20041;-83
2021/10/17 10:50:52;;;;;;;16.25;8.23;;;;;;;11.50;72.11;101638.72;5031396;28;20037;-88
2021/10/17 10:53:51;;;;;;;15.57;7.35;;;;;;;11.53;71.75;101642.94;5045099;28;20048;-83
2021/10/17 10:56:41;;;;;;;15.40;6.80;;;;;;;11.63;72.33;101642.91;5058472;28;20036;-86
2021/10/17 10:59:08;;;;;;;15.18;6.10;;;;;;;11.69;70.91;101648.53;5056024;28;20063;-89
2021/10/17 11:02:19;;;;;;;14.38;6.53;;;;;;;11.80;71.13;101639.41;5062312;28;20040;-86
2021/10/17 11:04:44;;;;;;;13.90;7.03;;;;;;;11.96;71.46;101636.06;5054638;28;20036;-87
2021/10/17 11:07:22;;;;;;;11.00;6.50;;;;;;;12.06;69.08;101634.16;5060595;28;20052;-84
2021/10/17 11:09:48;;;;;;;10.80;6.43;;;;;;;12.16;69.56;101623.31;5058045;28;20056;-83
2021/10/17 11:12:39;;;;;;;13.70;6.80;;;;;;;12.24;68.96;101622.53;5039339;28;20508;-86
2021/10/17 11:15:06;;;;;;;11.13;6.07;;;;;;;12.29;66.50;101625.63;5060203;28;20447;-83
2021/10/17 11:17:32;;;;;;;14.13;5.75;;;;;;;12.39;67.63;101624.50;5059404;28;20071;-83
2021/10/17 11:19:57;;;;;;;11.40;5.60;;;;;;;12.51;67.62;101613.50;5062808;28;20068;-85